createdAt,value
2017-07-25T00:00:11.736Z,16.20
2017-07-25T00:02:38.784Z,16.30
2017-07-25T00:05:05.939Z,16.20
2017-07-25T00:07:33.388Z,16.20
2017-07-25T00:09:59.815Z,16.10
2017-07-25T00:12:26.202Z,16.10
2017-07-25T00:14:52.639Z,16.10
2017-07-25T00:17:19.052Z,16.00
2017-07-25T00:19:45.465Z,16.10
2017-07-25T00:22:12.598Z,16.10
2017-07-25T00:24:39.018Z,16.10
2017-07-25T00:27:05.421Z,16.10
2017-07-25T00:29:31.833Z,16.20
2017-07-25T00:31:58.243Z,16.20
2017-07-25T00:34:25.386Z,16.20
2017-07-25T00:36:52.515Z,16.20
2017-07-25T00:39:18.944Z,16.20
2017-07-25T00:41:45.352Z,16.20
2017-07-25T00:44:11.765Z,16.20
2017-07-25T00:46:38.207Z,16.20
2017-07-25T00:49:04.616Z,16.20
2017-07-25T00:51:31.060Z,16.30
2017-07-25T00:53:57.465Z,16.30
2017-07-25T00:56:23.896Z,16.20
2017-07-25T00:58:50.326Z,16.20
2017-07-25T01:01:17.464Z,16.20
2017-07-25T01:03:43.868Z,16.20
2017-07-25T01:06:10.281Z,16.30
2017-07-25T01:08:36.670Z,16.30
2017-07-25T01:11:03.103Z,16.30
2017-07-25T01:13:30.246Z,16.30
2017-07-25T01:15:56.640Z,16.30
2017-07-25T01:18:23.098Z,16.30
2017-07-25T01:20:49.533Z,16.30
2017-07-25T01:23:15.930Z,16.30
2017-07-25T01:25:42.351Z,16.40
2017-07-25T01:28:08.746Z,16.40
2017-07-25T01:30:35.147Z,16.30
2017-07-25T01:33:01.576Z,16.40
2017-07-25T01:35:28.009Z,16.30
2017-07-25T01:37:55.004Z,16.30
2017-07-25T01:40:22.196Z,16.30
2017-07-25T01:42:48.613Z,16.30
2017-07-25T01:45:15.013Z,16.30
2017-07-25T01:47:41.436Z,16.20
2017-07-25T01:50:07.920Z,16.20
2017-07-25T01:52:34.342Z,16.20
2017-07-25T01:55:01.048Z,16.30
2017-07-25T01:57:27.544Z,16.20
2017-07-25T01:59:53.961Z,16.20
2017-07-25T02:02:20.426Z,16.20
2017-07-25T02:04:46.884Z,16.10
2017-07-25T02:07:13.266Z,16.10
2017-07-25T02:09:39.665Z,16.00
2017-07-25T02:12:06.833Z,16.00
2017-07-25T02:14:33.250Z,16.00
2017-07-25T02:16:59.673Z,16.00
2017-07-25T02:19:26.850Z,16.00
2017-07-25T02:21:53.241Z,15.90
2017-07-25T02:24:19.655Z,16.00
2017-07-25T02:26:46.039Z,16.00
2017-07-25T02:29:12.441Z,15.80
2017-07-25T02:31:38.821Z,15.80
2017-07-25T02:34:05.242Z,15.80
2017-07-25T02:36:31.668Z,15.80
2017-07-25T02:38:58.095Z,15.80
2017-07-25T02:41:25.247Z,15.70
2017-07-25T02:43:51.628Z,15.70
2017-07-25T02:46:18.031Z,15.60
2017-07-25T02:48:44.459Z,15.60
2017-07-25T02:51:10.881Z,15.50
2017-07-25T02:53:37.313Z,15.50
2017-07-25T02:56:03.725Z,15.40
2017-07-25T02:58:30.868Z,15.40
2017-07-25T03:00:57.268Z,15.40
2017-07-25T03:03:23.707Z,15.40
2017-07-25T03:05:50.130Z,15.40
2017-07-25T03:08:16.536Z,15.30
2017-07-25T03:10:42.942Z,15.30
2017-07-25T03:13:10.128Z,15.30
2017-07-25T03:15:36.550Z,15.30
2017-07-25T03:18:02.933Z,15.30
2017-07-25T03:20:29.346Z,15.30
2017-07-25T03:23:20.512Z,15.30
2017-07-25T03:25:46.904Z,15.20
2017-07-25T03:28:13.314Z,15.10
2017-07-25T03:30:39.734Z,15.00
2017-07-25T03:33:06.144Z,15.00
2017-07-25T03:35:32.524Z,14.90
2017-07-25T03:37:58.938Z,14.90
2017-07-25T03:40:25.353Z,15.00
2017-07-25T03:42:51.770Z,14.90
2017-07-25T03:45:18.924Z,14.80
2017-07-25T03:47:45.363Z,14.80
2017-07-25T03:50:11.804Z,14.80
2017-07-25T03:52:38.216Z,14.80
2017-07-25T03:55:04.676Z,14.80
2017-07-25T03:57:31.084Z,14.80
2017-07-25T03:59:57.484Z,14.90
2017-07-25T04:02:23.968Z,14.80
2017-07-25T04:04:50.435Z,14.80
2017-07-25T04:07:16.845Z,14.80
2017-07-25T04:09:43.229Z,14.80
2017-07-25T04:12:09.623Z,14.80
2017-07-25T04:14:36.039Z,14.70
2017-07-25T04:17:02.465Z,14.90
2017-07-25T04:19:28.874Z,14.90
2017-07-25T04:21:56.041Z,14.90
2017-07-25T04:24:22.441Z,14.90
2017-07-25T04:26:48.842Z,14.90
2017-07-25T04:29:15.270Z,14.90
2017-07-25T04:31:41.696Z,14.90
2017-07-25T04:34:08.108Z,14.90
2017-07-25T04:36:34.506Z,14.90
2017-07-25T04:39:01.656Z,14.90
2017-07-25T04:41:28.071Z,14.80
2017-07-25T04:43:54.488Z,14.80
2017-07-25T04:46:20.869Z,14.90
2017-07-25T04:48:48.000Z,14.90
2017-07-25T04:51:14.832Z,14.90
2017-07-25T04:53:41.286Z,15.00
2017-07-25T04:56:08.473Z,15.00
2017-07-25T04:58:34.873Z,15.00
2017-07-25T05:01:01.283Z,15.10
2017-07-25T05:03:27.761Z,15.10
2017-07-25T05:05:54.162Z,15.20
2017-07-25T05:08:20.638Z,15.30
2017-07-25T05:10:47.058Z,15.30
2017-07-25T05:13:13.476Z,15.40
2017-07-25T05:15:40.630Z,15.50
2017-07-25T05:18:07.032Z,15.40
2017-07-25T05:20:33.507Z,15.50
2017-07-25T05:22:59.954Z,15.50
2017-07-25T05:25:26.429Z,15.40
2017-07-25T05:27:52.850Z,15.40
2017-07-25T05:30:19.269Z,15.50
2017-07-25T05:32:45.697Z,15.50
2017-07-25T05:35:12.128Z,15.50
2017-07-25T05:37:38.534Z,15.70
2017-07-25T05:40:04.988Z,15.80
2017-07-25T05:42:31.374Z,15.80
2017-07-25T05:44:58.571Z,15.90
2017-07-25T05:47:24.988Z,15.90
2017-07-25T05:49:51.387Z,16.00
2017-07-25T05:52:18.536Z,16.10
2017-07-25T05:54:44.952Z,16.10
2017-07-25T05:57:11.378Z,16.20
2017-07-25T05:59:37.792Z,16.20
2017-07-25T06:02:04.212Z,16.30
2017-07-25T06:04:30.635Z,16.60
2017-07-25T06:06:57.049Z,16.80
2017-07-25T06:09:24.199Z,17.30
2017-07-25T06:11:52.646Z,17.40
2017-07-25T06:14:19.050Z,17.40
2017-07-25T06:16:45.460Z,17.60
2017-07-25T06:19:12.766Z,17.60
2017-07-25T06:21:39.178Z,17.50
2017-07-25T06:24:05.618Z,17.50
2017-07-25T06:28:53.203Z,17.30
2017-07-25T06:31:20.357Z,17.10
2017-07-25T06:33:47.500Z,17.40
2017-07-25T06:36:14.660Z,17.60
2017-07-25T06:38:41.829Z,18.10
2017-07-25T06:41:08.267Z,18.00
2017-07-25T06:43:34.669Z,18.50
2017-07-25T06:46:01.122Z,18.80
2017-07-25T06:48:27.560Z,19.10
2017-07-25T06:50:53.963Z,19.20
2017-07-25T06:53:21.115Z,19.10
2017-07-25T06:55:48.271Z,19.00
2017-07-25T06:58:14.734Z,19.00
2017-07-25T07:00:41.118Z,19.00
2017-07-25T07:03:08.275Z,18.80
2017-07-25T07:05:35.449Z,18.60
2017-07-25T07:08:01.854Z,18.60
2017-07-25T07:10:28.989Z,18.90
2017-07-25T07:12:55.392Z,18.90
2017-07-25T07:15:21.833Z,19.10
2017-07-25T07:17:49.817Z,18.80
2017-07-25T07:20:16.207Z,18.80
2017-07-25T07:22:42.645Z,18.40
2017-07-25T07:25:09.059Z,18.20
2017-07-25T07:27:35.502Z,17.90
2017-07-25T07:30:01.995Z,17.60
2017-07-25T07:32:28.411Z,17.60
2017-07-25T07:34:54.851Z,17.70
2017-07-25T07:37:21.269Z,17.70
2017-07-25T07:39:48.482Z,17.70
2017-07-25T07:42:14.911Z,17.80
2017-07-25T07:44:41.327Z,17.80
2017-07-25T07:47:08.486Z,17.70
2017-07-25T07:49:34.904Z,17.70
2017-07-25T07:52:02.752Z,17.50
2017-07-25T07:54:29.220Z,17.50
2017-07-25T07:56:55.702Z,17.60
2017-07-25T07:59:22.183Z,17.80
2017-07-25T08:01:48.706Z,18.10
2017-07-25T08:04:15.142Z,18.30
2017-07-25T08:06:42.288Z,18.60
2017-07-25T08:09:08.748Z,18.50
2017-07-25T08:11:35.167Z,18.70
2017-07-25T08:14:02.342Z,18.60
2017-07-25T08:16:28.772Z,18.60
2017-07-25T08:18:55.161Z,18.70
2017-07-25T08:21:21.575Z,18.70
2017-07-25T08:23:48.003Z,18.70
2017-07-25T08:26:14.550Z,18.90
2017-07-25T08:28:41.312Z,19.00
2017-07-25T08:31:08.462Z,18.90
2017-07-25T08:33:35.651Z,18.70
2017-07-25T08:36:02.129Z,18.70
2017-07-25T08:38:28.583Z,18.70
2017-07-25T08:40:55.767Z,18.60
2017-07-25T08:43:22.152Z,18.60
2017-07-25T08:45:48.558Z,18.50
2017-07-25T08:48:14.985Z,18.50
2017-07-25T08:50:41.373Z,18.70
2017-07-25T08:53:08.512Z,19.00
2017-07-25T08:55:35.704Z,19.00
2017-07-25T08:58:02.127Z,19.00
2017-07-25T09:00:28.595Z,19.20
2017-07-25T09:02:55.009Z,19.20
2017-07-25T09:05:21.443Z,19.00
2017-07-25T09:07:47.856Z,18.70
2017-07-25T09:10:14.681Z,18.40
2017-07-25T09:12:41.864Z,18.60
2017-07-25T09:15:08.282Z,18.60
2017-07-25T09:17:34.713Z,18.90
2017-07-25T09:20:01.153Z,19.20
2017-07-25T09:22:27.556Z,19.10
2017-07-25T09:24:54.698Z,19.20
2017-07-25T09:27:21.155Z,19.20
2017-07-25T09:29:47.559Z,19.30
2017-07-25T09:32:13.997Z,19.30
2017-07-25T09:34:41.182Z,19.30
2017-07-25T09:37:07.591Z,19.30
2017-07-25T09:39:34.000Z,19.40
2017-07-25T09:42:00.432Z,19.50
2017-07-25T09:44:26.828Z,19.50
2017-07-25T09:46:53.252Z,19.50
2017-07-25T09:49:19.672Z,19.70
2017-07-25T09:51:46.075Z,19.90
2017-07-25T09:54:13.244Z,20.00
2017-07-25T09:56:39.648Z,20.00
2017-07-25T09:59:06.076Z,20.00
2017-07-25T10:01:32.499Z,19.80
2017-07-25T10:03:58.949Z,19.60
2017-07-25T10:06:25.338Z,19.40
2017-07-25T10:08:51.742Z,19.50
2017-07-25T10:11:18.149Z,19.50
2017-07-25T10:13:44.654Z,19.40
2017-07-25T10:16:11.110Z,19.30
2017-07-25T10:18:37.531Z,19.20
2017-07-25T10:21:03.961Z,19.30
2017-07-25T10:23:30.440Z,19.20
2017-07-25T10:25:56.882Z,19.20
2017-07-25T10:28:23.313Z,19.20
2017-07-25T10:30:49.736Z,19.10
2017-07-25T10:33:16.969Z,19.10
2017-07-25T10:35:44.468Z,19.30
2017-07-25T10:38:10.870Z,19.20
2017-07-25T10:40:38.017Z,19.20
2017-07-25T10:43:04.419Z,19.20
2017-07-25T10:45:30.808Z,19.10
2017-07-25T10:47:57.230Z,19.00
2017-07-25T10:50:23.683Z,18.90
2017-07-25T10:52:50.102Z,18.80
2017-07-25T10:55:16.550Z,18.90
2017-07-25T10:57:42.990Z,18.80
2017-07-25T11:00:09.451Z,18.70
2017-07-25T11:02:35.854Z,18.50
2017-07-25T11:05:02.293Z,18.50
2017-07-25T11:07:28.710Z,18.30
2017-07-25T11:09:55.112Z,18.30
2017-07-25T11:12:22.292Z,18.30
2017-07-25T11:14:48.700Z,18.30
2017-07-25T11:17:15.861Z,18.40
2017-07-25T11:19:42.995Z,18.60
2017-07-25T11:22:10.161Z,18.70
2017-07-25T11:24:37.395Z,18.90
2017-07-25T11:27:04.587Z,19.00
2017-07-25T11:29:30.976Z,19.00
2017-07-25T11:31:58.124Z,19.60
2017-07-25T11:34:24.527Z,19.60
2017-07-25T11:36:50.993Z,19.80
2017-07-25T11:39:17.422Z,19.60
2017-07-25T11:41:43.830Z,19.70
2017-07-25T11:44:10.230Z,19.90
2017-07-25T11:46:36.629Z,20.30
2017-07-25T11:49:03.831Z,20.80
2017-07-25T11:51:30.244Z,20.70
2017-07-25T11:53:56.643Z,20.90
2017-07-25T11:56:23.045Z,21.10
2017-07-25T11:58:49.509Z,21.30
2017-07-25T12:01:15.906Z,21.40
2017-07-25T12:03:42.377Z,21.50
2017-07-25T12:06:09.531Z,21.70
2017-07-25T12:08:36.654Z,21.60
2017-07-25T12:11:03.076Z,21.60
2017-07-25T12:13:29.500Z,21.40
2017-07-25T12:15:55.913Z,21.30
2017-07-25T12:18:22.333Z,21.10
2017-07-25T12:21:15.824Z,21.00
2017-07-25T12:23:42.244Z,20.90
2017-07-25T12:26:08.633Z,20.70
2017-07-25T12:28:35.036Z,20.60
2017-07-25T12:31:02.464Z,20.70
2017-07-25T12:33:28.840Z,20.80
2017-07-25T12:35:55.288Z,20.50
2017-07-25T12:38:21.754Z,20.40
2017-07-25T12:40:48.221Z,20.30
2017-07-25T12:43:14.700Z,20.20
2017-07-25T12:45:41.855Z,19.90
2017-07-25T12:48:09.031Z,19.80
2017-07-25T12:50:35.464Z,19.80
2017-07-25T12:53:01.870Z,19.70
2017-07-25T12:55:28.292Z,19.70
2017-07-25T12:57:54.684Z,19.70
2017-07-25T13:00:21.138Z,19.50
2017-07-25T13:03:09.506Z,19.50
2017-07-25T13:05:36.669Z,19.50
2017-07-25T13:08:03.858Z,19.60
2017-07-25T13:10:30.268Z,19.60
2017-07-25T13:12:56.676Z,19.60
2017-07-25T13:15:23.092Z,19.70
2017-07-25T13:17:49.505Z,19.70
2017-07-25T13:20:15.876Z,19.80
2017-07-25T13:22:42.289Z,19.90
2017-07-25T13:25:08.699Z,20.00
2017-07-25T13:27:35.117Z,20.20
2017-07-25T13:30:01.549Z,20.50
2017-07-25T13:32:27.968Z,20.70
2017-07-25T13:34:54.373Z,20.90
2017-07-25T13:37:21.525Z,20.90
2017-07-25T13:39:48.702Z,20.50
2017-07-25T13:42:15.114Z,20.50
2017-07-25T13:44:41.577Z,20.30
2017-07-25T13:47:07.976Z,20.30
2017-07-25T13:49:35.103Z,20.40
2017-07-25T13:52:01.516Z,20.40
2017-07-25T13:54:27.931Z,20.50
2017-07-25T13:56:55.134Z,20.60
2017-07-25T13:59:22.281Z,20.60
2017-07-25T14:01:49.454Z,20.70
2017-07-25T14:04:15.872Z,20.70
2017-07-25T14:06:43.014Z,21.10
2017-07-25T14:09:09.417Z,21.10
2017-07-25T14:11:36.080Z,21.50
2017-07-25T14:14:02.524Z,21.70
2017-07-25T14:16:29.894Z,22.00
2017-07-25T14:18:56.320Z,22.10
2017-07-25T14:21:22.723Z,22.10
2017-07-25T14:23:49.108Z,22.10
2017-07-25T14:26:15.508Z,21.90
2017-07-25T14:28:42.659Z,21.40
2017-07-25T14:31:09.815Z,21.30
2017-07-25T14:33:36.962Z,21.10
2017-07-25T14:36:04.168Z,21.40
2017-07-25T14:38:30.602Z,21.30
2017-07-25T14:40:57.063Z,21.60
2017-07-25T14:43:23.503Z,21.80
2017-07-25T14:45:49.901Z,22.00
2017-07-25T14:48:16.376Z,22.20
2017-07-25T14:50:43.521Z,22.30
2017-07-25T14:53:09.920Z,22.30
2017-07-25T14:55:36.314Z,22.50
2017-07-25T14:58:02.733Z,22.60
2017-07-25T15:00:29.891Z,22.70
2017-07-25T15:02:57.026Z,22.60
2017-07-25T15:05:24.213Z,22.50
2017-07-25T15:07:50.642Z,22.50
2017-07-25T15:10:17.077Z,22.30
2017-07-25T15:12:43.495Z,22.20
2017-07-25T15:15:09.936Z,22.10
2017-07-25T15:17:36.402Z,22.00
2017-07-25T15:20:02.814Z,22.00
2017-07-25T15:22:29.271Z,22.10
2017-07-25T15:24:55.696Z,21.90
2017-07-25T15:27:22.132Z,22.00
2017-07-25T15:29:48.518Z,22.10
2017-07-25T15:32:15.688Z,22.00
2017-07-25T15:34:42.120Z,22.00
2017-07-25T15:37:08.527Z,21.90
2017-07-25T15:39:35.655Z,21.90
2017-07-25T15:42:02.074Z,21.80
2017-07-25T15:44:28.517Z,21.90
2017-07-25T15:46:55.676Z,21.50
2017-07-25T15:49:22.071Z,21.50
2017-07-25T15:51:48.501Z,21.30
2017-07-25T15:54:14.921Z,21.40
2017-07-25T15:56:41.490Z,21.30
2017-07-25T15:59:07.908Z,21.30
2017-07-25T16:01:34.321Z,21.30
2017-07-25T16:04:00.744Z,21.30
2017-07-25T16:06:27.910Z,21.30
2017-07-25T16:08:54.361Z,21.30
2017-07-25T16:11:20.780Z,21.20
2017-07-25T16:13:47.177Z,21.00
2017-07-25T16:16:14.328Z,20.60
2017-07-25T16:18:41.484Z,20.60
2017-07-25T16:21:08.648Z,20.80
2017-07-25T16:23:35.063Z,20.80
2017-07-25T16:26:02.220Z,20.90
2017-07-25T16:28:29.355Z,20.80
2017-07-25T16:30:56.793Z,20.70
2017-07-25T16:33:23.222Z,20.70
2017-07-25T16:35:49.640Z,20.70
2017-07-25T16:38:16.085Z,20.70
2017-07-25T16:40:42.491Z,20.50
2017-07-25T16:43:08.914Z,20.30
2017-07-25T16:45:35.336Z,20.20
2017-07-25T16:48:01.742Z,19.90
2017-07-25T16:50:28.892Z,19.50
2017-07-25T16:52:56.038Z,19.40
2017-07-25T16:55:23.222Z,19.30
2017-07-25T16:57:49.634Z,19.30
2017-07-25T17:00:16.852Z,19.60
2017-07-25T17:02:43.269Z,19.50
2017-07-25T17:05:09.715Z,19.80
2017-07-25T17:07:36.595Z,20.00
2017-07-25T17:10:03.751Z,20.00
2017-07-25T17:12:30.326Z,20.00
2017-07-25T17:14:56.716Z,19.80
2017-07-25T17:17:23.840Z,19.80
2017-07-25T17:19:51.031Z,19.90
2017-07-25T17:22:17.454Z,19.90
2017-07-25T17:24:44.624Z,20.10
2017-07-25T17:27:11.012Z,20.10
2017-07-25T17:29:37.641Z,20.00
2017-07-25T17:32:04.123Z,19.80
2017-07-25T17:34:30.562Z,19.60
2017-07-25T17:36:56.937Z,19.50
2017-07-25T17:39:23.366Z,19.50
2017-07-25T17:41:49.767Z,19.50
2017-07-25T17:44:16.152Z,19.50
2017-07-25T17:46:43.293Z,19.50
2017-07-25T17:49:09.709Z,19.50
2017-07-25T17:51:36.098Z,19.40
2017-07-25T17:54:02.512Z,19.40
2017-07-25T17:56:29.656Z,19.40
2017-07-25T17:58:56.800Z,19.40
2017-07-25T18:01:23.960Z,19.30
2017-07-25T18:03:51.168Z,19.20
2017-07-25T18:06:17.572Z,19.10
2017-07-25T18:08:43.986Z,19.00
2017-07-25T18:11:10.402Z,18.80
2017-07-25T18:13:37.605Z,18.60
2017-07-25T18:16:04.017Z,18.60
2017-07-25T18:18:30.450Z,18.60
2017-07-25T18:20:56.915Z,18.50
2017-07-25T18:23:23.332Z,18.40
2017-07-25T18:25:49.713Z,18.30
2017-07-25T18:28:16.167Z,18.20
2017-07-25T18:30:42.598Z,18.10
2017-07-25T18:33:09.069Z,17.90
2017-07-25T18:35:35.548Z,17.80
2017-07-25T18:38:03.469Z,17.70
2017-07-25T18:40:29.885Z,17.60
2017-07-25T18:42:56.283Z,17.60
2017-07-25T18:45:23.464Z,17.40
2017-07-25T18:47:49.857Z,17.40
2017-07-25T18:50:16.282Z,17.20
2017-07-25T18:52:42.694Z,17.20
2017-07-25T18:55:09.109Z,17.20
2017-07-25T18:57:35.521Z,17.10
2017-07-25T19:00:01.966Z,17.00
2017-07-25T19:02:28.381Z,17.00
2017-07-25T19:04:55.716Z,16.90
2017-07-25T19:07:22.882Z,16.90
2017-07-25T19:09:49.317Z,16.90
2017-07-25T19:12:15.714Z,16.90
2017-07-25T19:14:42.120Z,16.80
2017-07-25T19:17:08.615Z,16.80
2017-07-25T19:19:35.034Z,16.70
2017-07-25T19:22:02.223Z,16.60
2017-07-25T19:24:28.606Z,16.50
2017-07-25T19:26:55.002Z,16.60
2017-07-25T19:29:21.445Z,16.60
2017-07-25T19:31:47.880Z,16.50
2017-07-25T19:34:14.296Z,16.40
2017-07-25T19:36:40.769Z,16.30
2017-07-25T19:39:07.231Z,16.30
2017-07-25T19:41:33.695Z,16.30
2017-07-25T19:44:00.213Z,16.30
2017-07-25T19:46:26.688Z,16.40
2017-07-25T19:48:53.122Z,16.40
2017-07-25T19:51:19.567Z,16.50
2017-07-25T19:53:46.014Z,16.50
2017-07-25T19:56:13.302Z,16.50
2017-07-25T19:58:39.738Z,16.50
2017-07-25T20:01:06.172Z,16.60
2017-07-25T20:03:32.618Z,16.60
2017-07-25T20:05:59.003Z,16.60
2017-07-25T20:08:26.149Z,16.60
2017-07-25T20:10:53.330Z,16.60
2017-07-25T20:13:19.794Z,16.60
2017-07-25T20:15:46.181Z,16.70
2017-07-25T20:18:13.409Z,16.80
2017-07-25T20:20:39.827Z,16.80
2017-07-25T20:23:06.215Z,16.80
2017-07-25T20:25:32.832Z,16.80
2017-07-25T20:28:00.005Z,16.80
2017-07-25T20:30:26.451Z,16.80
2017-07-25T20:32:52.870Z,16.80
2017-07-25T20:35:19.272Z,16.80
2017-07-25T20:37:46.475Z,16.80
2017-07-25T20:40:12.887Z,16.70
2017-07-25T20:42:39.319Z,16.70
2017-07-25T20:45:05.746Z,16.70
2017-07-25T20:47:32.189Z,16.80
2017-07-25T20:49:58.617Z,16.80
2017-07-25T20:52:25.032Z,16.90
2017-07-25T20:54:51.432Z,16.80
2017-07-25T20:57:17.811Z,16.80
2017-07-25T20:59:44.267Z,16.80
2017-07-25T21:02:10.686Z,16.70
2017-07-25T21:04:37.148Z,16.70
2017-07-25T21:07:03.579Z,16.60
2017-07-25T21:09:30.016Z,16.50
2017-07-25T21:11:56.440Z,16.50
2017-07-25T21:14:22.844Z,16.50
2017-07-25T21:16:49.229Z,16.50
2017-07-25T21:19:15.675Z,16.50
2017-07-25T21:21:42.815Z,16.70
2017-07-25T21:24:09.233Z,16.60
2017-07-25T21:26:35.635Z,16.70
2017-07-25T21:29:02.053Z,16.80
2017-07-25T21:31:28.434Z,16.80
2017-07-25T21:33:54.832Z,16.70
2017-07-25T21:36:21.237Z,16.60
2017-07-25T21:38:47.790Z,16.50
2017-07-25T21:41:14.197Z,16.70
2017-07-25T21:43:41.373Z,16.70
2017-07-25T21:46:07.905Z,16.70
2017-07-25T21:48:34.377Z,16.70
2017-07-25T21:51:00.786Z,16.50
2017-07-25T21:53:27.178Z,16.60
2017-07-25T21:55:54.348Z,16.60
2017-07-25T21:58:20.715Z,16.50
2017-07-25T22:00:47.148Z,16.50
2017-07-25T22:03:25.815Z,16.60
2017-07-25T22:05:53.017Z,16.60
2017-07-25T22:08:19.436Z,16.60
2017-07-25T22:10:45.845Z,16.60
2017-07-25T22:13:12.244Z,16.70
2017-07-25T22:15:38.636Z,16.70
2017-07-25T22:18:05.049Z,16.70
2017-07-25T22:20:31.471Z,16.70
2017-07-25T22:22:57.851Z,16.60
2017-07-25T22:25:24.227Z,16.60
2017-07-25T22:27:51.378Z,16.60
2017-07-25T22:30:17.815Z,16.60
2017-07-25T22:32:45.259Z,16.60
2017-07-25T22:35:12.418Z,16.60
2017-07-25T22:37:39.565Z,16.60
2017-07-25T22:40:06.719Z,16.60
2017-07-25T22:42:33.133Z,16.60
2017-07-25T22:44:59.557Z,16.60
2017-07-25T22:47:26.409Z,16.50
2017-07-25T22:49:53.832Z,16.50
2017-07-25T22:52:20.240Z,16.40
2017-07-25T22:54:46.632Z,16.40
2017-07-25T22:57:13.040Z,16.40
2017-07-25T22:59:39.446Z,16.30
2017-07-25T23:02:05.866Z,16.40
2017-07-25T23:04:32.266Z,16.40
2017-07-25T23:06:59.398Z,16.40
2017-07-25T23:09:25.854Z,16.40
2017-07-25T23:11:53.031Z,16.30
2017-07-25T23:14:19.409Z,16.30
2017-07-25T23:16:45.829Z,16.20
2017-07-25T23:19:12.241Z,16.10
2017-07-25T23:21:38.652Z,16.10
2017-07-25T23:24:05.047Z,16.10
2017-07-25T23:26:31.457Z,16.00
2017-07-25T23:28:57.872Z,16.00
2017-07-25T23:31:24.353Z,16.00
2017-07-25T23:33:50.759Z,15.90
2017-07-25T23:36:17.192Z,15.90
2017-07-25T23:38:43.591Z,15.90
2017-07-25T23:41:09.981Z,15.90
2017-07-25T23:43:36.387Z,16.00
2017-07-25T23:46:02.782Z,16.00
2017-07-25T23:48:29.196Z,15.90
2017-07-25T23:50:56.361Z,15.60
2017-07-25T23:53:22.762Z,15.60
2017-07-25T23:55:49.975Z,15.60
2017-07-25T23:58:16.405Z,15.60
